createdAt,value
2017-05-24T00:00:24.517Z,0
2017-05-24T00:00:50.618Z,0
2017-05-24T00:01:16.753Z,0
2017-05-24T00:01:42.843Z,0
2017-05-24T00:02:08.970Z,0
2017-05-24T00:02:35.102Z,0
2017-05-24T00:03:01.246Z,0
2017-05-24T00:03:27.368Z,0
2017-05-24T00:03:53.519Z,0
2017-05-24T00:04:19.676Z,0
2017-05-24T00:04:45.813Z,0
2017-05-24T00:05:11.948Z,0
2017-05-24T00:05:38.046Z,0
2017-05-24T00:06:04.152Z,0
2017-05-24T00:06:30.243Z,0
2017-05-24T00:06:56.366Z,0
2017-05-24T00:07:22.498Z,0
2017-05-24T00:07:48.619Z,0
2017-05-24T00:08:14.742Z,0
2017-05-24T00:08:40.848Z,0
2017-05-24T00:09:06.974Z,0
2017-05-24T00:09:33.089Z,0
2017-05-24T00:09:59.197Z,0
2017-05-24T00:10:25.296Z,0
2017-05-24T00:10:51.411Z,0
2017-05-24T00:11:17.517Z,0
2017-05-24T00:11:43.623Z,0
2017-05-24T00:12:09.714Z,0
2017-05-24T00:12:35.841Z,0
2017-05-24T00:13:01.977Z,0
2017-05-24T00:13:28.097Z,0
2017-05-24T00:13:54.267Z,0
2017-05-24T00:14:20.400Z,0
2017-05-24T00:14:46.492Z,0
2017-05-24T00:15:12.601Z,0
2017-05-24T00:15:38.687Z,0
2017-05-24T00:16:04.789Z,0
2017-05-24T00:16:30.950Z,0
2017-05-24T00:16:57.069Z,0
2017-05-24T00:17:23.192Z,0
2017-05-24T00:17:49.301Z,0
2017-05-24T00:18:15.493Z,0
2017-05-24T00:18:41.608Z,0
2017-05-24T00:19:07.769Z,0
2017-05-24T00:19:33.893Z,0
2017-05-24T00:20:00.037Z,0
2017-05-24T00:20:26.191Z,0
2017-05-24T00:20:52.285Z,0
2017-05-24T00:21:18.393Z,0
2017-05-24T00:21:44.515Z,0
2017-05-24T00:22:10.608Z,0
2017-05-24T00:22:36.716Z,0
2017-05-24T00:23:02.813Z,0
2017-05-24T00:23:28.953Z,0
2017-05-24T00:23:55.113Z,0
2017-05-24T00:24:21.265Z,0
2017-05-24T00:24:47.353Z,0
2017-05-24T00:25:13.457Z,0
2017-05-24T00:25:39.591Z,0
2017-05-24T00:26:05.684Z,0
2017-05-24T00:26:31.809Z,0
2017-05-24T00:26:57.900Z,0
2017-05-24T00:27:24.006Z,0
2017-05-24T00:27:50.112Z,0
2017-05-24T00:28:16.200Z,0
2017-05-24T00:28:42.329Z,0
2017-05-24T00:29:08.464Z,0
2017-05-24T00:29:34.577Z,0
2017-05-24T00:30:00.728Z,0
2017-05-24T00:30:26.837Z,0
2017-05-24T00:30:52.949Z,0
2017-05-24T00:31:19.053Z,0
2017-05-24T00:31:45.171Z,0
2017-05-24T00:32:11.349Z,0
2017-05-24T00:32:37.454Z,0
2017-05-24T00:33:03.621Z,0
2017-05-24T00:33:29.725Z,0
2017-05-24T00:33:55.856Z,0
2017-05-24T00:34:21.946Z,0
2017-05-24T00:34:48.071Z,0
2017-05-24T00:35:14.203Z,0
2017-05-24T00:35:40.298Z,0
2017-05-24T00:36:06.413Z,0
2017-05-24T00:36:32.549Z,0
2017-05-24T00:36:58.676Z,0
2017-05-24T00:37:24.805Z,0
2017-05-24T00:37:50.921Z,0
2017-05-24T00:38:17.067Z,0
2017-05-24T00:38:43.203Z,0
2017-05-24T00:39:09.357Z,0
2017-05-24T00:39:35.518Z,0
2017-05-24T00:40:01.627Z,0
2017-05-24T00:40:27.725Z,0
2017-05-24T00:40:53.841Z,0
2017-05-24T00:41:19.947Z,0
2017-05-24T00:41:46.046Z,0
2017-05-24T00:42:12.164Z,0
2017-05-24T00:42:38.297Z,0
2017-05-24T00:43:04.466Z,0
2017-05-24T00:43:30.576Z,0
2017-05-24T00:43:56.705Z,0
2017-05-24T00:44:22.795Z,0
2017-05-24T00:44:48.925Z,0
2017-05-24T00:45:15.081Z,0
2017-05-24T00:45:41.173Z,0
2017-05-24T00:46:07.272Z,0
2017-05-24T00:46:33.407Z,0
2017-05-24T00:46:59.519Z,0
2017-05-24T00:47:25.644Z,0
2017-05-24T00:47:51.807Z,0
2017-05-24T00:48:17.953Z,0
2017-05-24T00:48:44.083Z,0
2017-05-24T00:49:10.174Z,0
2017-05-24T00:49:36.332Z,0
2017-05-24T00:50:02.524Z,0
2017-05-24T00:50:28.659Z,0
2017-05-24T00:50:54.756Z,0
2017-05-24T00:51:20.893Z,0
2017-05-24T00:51:47.010Z,0
2017-05-24T00:52:13.133Z,0
2017-05-24T00:52:39.296Z,0
2017-05-24T00:53:05.467Z,0
2017-05-24T00:53:31.583Z,0
2017-05-24T00:53:57.746Z,0
2017-05-24T00:54:23.901Z,0
2017-05-24T00:54:50.020Z,0
2017-05-24T00:55:16.176Z,0
2017-05-24T00:55:42.278Z,0
2017-05-24T00:56:08.367Z,0
2017-05-24T00:56:34.549Z,0
2017-05-24T00:57:00.657Z,0
2017-05-24T00:57:26.747Z,0
2017-05-24T00:57:52.898Z,0
2017-05-24T00:58:19.092Z,0
2017-05-24T00:58:45.208Z,0
2017-05-24T00:59:11.351Z,0
2017-05-24T00:59:37.499Z,0
2017-05-24T01:00:03.632Z,0
2017-05-24T01:00:29.736Z,0
2017-05-24T01:00:55.848Z,0
2017-05-24T01:01:21.952Z,0
2017-05-24T01:01:48.112Z,0
2017-05-24T01:02:14.255Z,0
2017-05-24T01:02:40.353Z,0
2017-05-24T01:03:06.459Z,0
2017-05-24T01:03:32.553Z,0
2017-05-24T01:03:58.701Z,0
2017-05-24T01:04:24.840Z,0
2017-05-24T01:04:50.965Z,0
2017-05-24T01:05:17.094Z,0
2017-05-24T01:05:43.184Z,0
2017-05-24T01:06:09.280Z,0
2017-05-24T01:06:35.388Z,0
2017-05-24T01:07:01.484Z,0
2017-05-24T01:07:27.621Z,0
2017-05-24T01:07:53.760Z,0
2017-05-24T01:08:19.913Z,0
2017-05-24T01:08:46.030Z,0
2017-05-24T01:09:12.224Z,0
2017-05-24T01:09:38.270Z,0
2017-05-24T01:10:04.409Z,0
2017-05-24T01:10:30.512Z,0
2017-05-24T01:10:56.627Z,0
2017-05-24T01:11:22.737Z,0
2017-05-24T01:11:48.834Z,0
2017-05-24T01:12:14.925Z,0
2017-05-24T01:12:41.062Z,0
2017-05-24T01:13:07.187Z,0
2017-05-24T01:13:33.300Z,0
2017-05-24T01:13:59.427Z,0
2017-05-24T01:14:25.588Z,0
2017-05-24T01:14:51.726Z,0
2017-05-24T01:15:17.874Z,0
2017-05-24T01:15:44.008Z,0
2017-05-24T01:16:10.127Z,0
2017-05-24T01:16:36.257Z,0
2017-05-24T01:17:02.473Z,0
2017-05-24T01:17:28.576Z,0
2017-05-24T01:17:54.738Z,0
2017-05-24T01:18:20.852Z,0
2017-05-24T01:18:47.026Z,0
2017-05-24T01:19:13.159Z,0
2017-05-24T01:19:39.276Z,0
2017-05-24T01:20:05.423Z,0
2017-05-24T01:20:31.585Z,0
2017-05-24T01:20:57.730Z,0
2017-05-24T01:21:23.821Z,0
2017-05-24T01:21:49.923Z,0
2017-05-24T01:22:16.052Z,0
2017-05-24T01:22:42.157Z,0
2017-05-24T01:23:08.297Z,0
2017-05-24T01:23:34.393Z,0
2017-05-24T01:24:00.530Z,0
2017-05-24T01:24:26.648Z,0
2017-05-24T01:24:52.769Z,0
2017-05-24T01:25:18.927Z,0
2017-05-24T01:25:45.053Z,0
2017-05-24T01:26:11.146Z,0
2017-05-24T01:26:37.247Z,0
2017-05-24T01:27:03.375Z,0
2017-05-24T01:27:29.524Z,0
2017-05-24T01:27:55.621Z,0
2017-05-24T01:28:21.779Z,0
2017-05-24T01:28:47.924Z,0
2017-05-24T01:29:14.050Z,0
2017-05-24T01:29:40.191Z,0
2017-05-24T01:30:06.321Z,0
2017-05-24T01:30:32.420Z,0
2017-05-24T01:30:58.538Z,0
2017-05-24T01:31:24.640Z,0
2017-05-24T01:31:50.747Z,0
2017-05-24T01:32:16.863Z,0
2017-05-24T01:32:42.962Z,0
2017-05-24T01:33:09.054Z,0
2017-05-24T01:33:35.185Z,0
2017-05-24T01:34:01.313Z,0
2017-05-24T01:34:27.429Z,0
2017-05-24T01:34:53.534Z,0
2017-05-24T01:35:19.696Z,0
2017-05-24T01:35:45.809Z,0
2017-05-24T01:36:11.934Z,0
2017-05-24T01:36:38.096Z,0
2017-05-24T01:37:04.186Z,0
2017-05-24T01:37:30.307Z,0
2017-05-24T01:37:56.442Z,0
2017-05-24T01:38:22.536Z,0
2017-05-24T01:38:48.648Z,0
2017-05-24T01:39:14.756Z,0
2017-05-24T01:39:40.908Z,0
2017-05-24T01:40:07.022Z,0
2017-05-24T01:40:33.131Z,0
2017-05-24T01:40:59.258Z,0
2017-05-24T01:41:25.374Z,0
2017-05-24T01:41:51.503Z,0
2017-05-24T01:42:17.610Z,0
2017-05-24T01:42:43.695Z,0
2017-05-24T01:43:09.843Z,0
2017-05-24T01:43:35.949Z,0
2017-05-24T01:44:02.095Z,0
2017-05-24T01:44:28.227Z,0
2017-05-24T01:44:54.342Z,0
2017-05-24T01:45:20.444Z,0
2017-05-24T01:45:46.553Z,0
2017-05-24T01:46:12.641Z,0
2017-05-24T01:46:38.765Z,0
2017-05-24T01:47:04.899Z,0
2017-05-24T01:47:31.014Z,0
2017-05-24T01:47:57.116Z,0
2017-05-24T01:48:23.247Z,0
2017-05-24T01:48:49.366Z,0
2017-05-24T01:49:15.507Z,0
2017-05-24T01:49:41.658Z,0
2017-05-24T01:50:07.780Z,0
2017-05-24T01:50:33.944Z,0
2017-05-24T01:51:00.063Z,0
2017-05-24T01:51:26.185Z,0
2017-05-24T01:51:52.290Z,0
2017-05-24T01:52:18.383Z,0
2017-05-24T01:52:44.498Z,0
2017-05-24T01:53:10.636Z,0
2017-05-24T01:53:36.762Z,0
2017-05-24T01:54:02.903Z,0
2017-05-24T01:54:29.060Z,0
2017-05-24T01:54:55.216Z,0
2017-05-24T01:55:21.317Z,0
2017-05-24T01:55:47.434Z,0
2017-05-24T01:56:13.524Z,0
2017-05-24T01:56:39.661Z,0
2017-05-24T01:57:05.815Z,0
2017-05-24T01:57:31.932Z,0
2017-05-24T01:57:58.093Z,0
2017-05-24T01:58:24.248Z,0
2017-05-24T01:58:50.384Z,0
2017-05-24T01:59:16.533Z,0
2017-05-24T01:59:42.695Z,0
2017-05-24T02:00:08.886Z,0
2017-05-24T02:00:35.011Z,0
2017-05-24T02:01:01.104Z,0
2017-05-24T02:01:27.207Z,0
2017-05-24T02:01:53.307Z,0
2017-05-24T02:02:19.396Z,0
2017-05-24T02:02:45.499Z,0
2017-05-24T02:03:11.632Z,0
2017-05-24T02:03:37.746Z,0
2017-05-24T02:04:03.871Z,0
2017-05-24T02:04:29.977Z,0
2017-05-24T02:04:56.146Z,0
2017-05-24T02:05:22.315Z,0
2017-05-24T02:05:48.451Z,0
2017-05-24T02:06:14.600Z,0
2017-05-24T02:06:40.708Z,0
2017-05-24T02:07:06.793Z,0
2017-05-24T02:07:32.943Z,0
2017-05-24T02:07:59.102Z,0
2017-05-24T02:08:25.246Z,0
2017-05-24T02:08:51.392Z,0
2017-05-24T02:09:17.555Z,0
2017-05-24T02:09:43.649Z,0
2017-05-24T02:10:09.787Z,0
2017-05-24T02:10:35.922Z,0
2017-05-24T02:11:02.019Z,0
2017-05-24T02:11:28.155Z,0
2017-05-24T02:11:54.264Z,0
2017-05-24T02:12:20.383Z,0
2017-05-24T02:12:46.518Z,0
2017-05-24T02:13:12.612Z,0
2017-05-24T02:13:38.727Z,0
2017-05-24T02:14:04.837Z,0
2017-05-24T02:14:30.961Z,0
2017-05-24T02:14:57.077Z,0
2017-05-24T02:15:23.207Z,0
2017-05-24T02:15:49.308Z,0
2017-05-24T02:16:15.400Z,0
2017-05-24T02:16:41.531Z,0
2017-05-24T02:17:07.663Z,0
2017-05-24T02:17:33.780Z,0
2017-05-24T02:17:59.907Z,0
2017-05-24T02:18:26.023Z,0
2017-05-24T02:18:52.130Z,0
2017-05-24T02:19:18.316Z,0
2017-05-24T02:19:44.405Z,0
2017-05-24T02:20:10.556Z,0
2017-05-24T02:20:36.661Z,0
2017-05-24T02:21:02.750Z,0
2017-05-24T02:21:28.852Z,0
2017-05-24T02:21:54.960Z,0
2017-05-24T02:22:21.051Z,0
2017-05-24T02:22:47.172Z,0
2017-05-24T02:23:13.305Z,0
2017-05-24T02:23:39.426Z,0
2017-05-24T02:24:05.542Z,0
2017-05-24T02:24:31.703Z,0
2017-05-24T02:24:57.883Z,0
2017-05-24T02:25:23.974Z,0
2017-05-24T02:25:50.082Z,0
2017-05-24T02:26:16.182Z,0
2017-05-24T02:26:42.298Z,0
2017-05-24T02:27:08.425Z,0
2017-05-24T02:27:34.557Z,0
2017-05-24T02:28:00.697Z,0
2017-05-24T02:28:26.849Z,0
2017-05-24T02:28:52.996Z,0
2017-05-24T02:29:19.153Z,0
2017-05-24T02:29:45.281Z,0
2017-05-24T02:30:11.421Z,0
2017-05-24T02:30:37.525Z,0
2017-05-24T02:31:03.660Z,0
2017-05-24T02:31:29.778Z,0
2017-05-24T02:31:55.877Z,0
2017-05-24T02:32:21.983Z,0
2017-05-24T02:32:48.161Z,0
2017-05-24T02:33:14.316Z,0
2017-05-24T02:33:40.405Z,0
2017-05-24T02:34:06.508Z,0
2017-05-24T02:34:32.600Z,0
2017-05-24T02:34:58.762Z,0
2017-05-24T02:35:24.887Z,0
2017-05-24T02:35:50.977Z,0
2017-05-24T02:36:17.139Z,0
2017-05-24T02:36:43.240Z,0
2017-05-24T02:37:09.330Z,0
2017-05-24T02:37:35.434Z,0
2017-05-24T02:38:01.541Z,0
2017-05-24T02:38:27.657Z,0
2017-05-24T02:38:53.782Z,0
2017-05-24T02:39:19.919Z,0
2017-05-24T02:39:46.008Z,0
2017-05-24T02:40:12.113Z,0
2017-05-24T02:40:38.227Z,0
2017-05-24T02:41:04.334Z,4
2017-05-24T02:41:30.467Z,4
2017-05-24T02:41:56.579Z,4
2017-05-24T02:42:22.702Z,4
2017-05-24T02:42:48.808Z,4
2017-05-24T02:43:14.928Z,4
2017-05-24T02:43:41.049Z,0
2017-05-24T02:44:07.156Z,0
2017-05-24T02:44:33.276Z,0
2017-05-24T02:44:59.367Z,4
2017-05-24T02:45:25.522Z,4
2017-05-24T02:45:51.624Z,4
2017-05-24T02:46:17.731Z,4
2017-05-24T02:46:43.845Z,4
2017-05-24T02:47:09.989Z,4
2017-05-24T02:47:36.124Z,4
2017-05-24T02:48:02.270Z,4
2017-05-24T02:48:28.386Z,4
2017-05-24T02:48:54.495Z,4
2017-05-24T02:49:20.591Z,8
2017-05-24T02:49:46.708Z,8
2017-05-24T02:50:12.843Z,4
2017-05-24T02:50:38.945Z,4
2017-05-24T02:51:05.046Z,4
2017-05-24T02:51:31.167Z,4
2017-05-24T02:51:57.284Z,8
2017-05-24T02:52:23.448Z,8
2017-05-24T02:52:49.598Z,8
2017-05-24T02:53:15.715Z,8
2017-05-24T02:53:41.844Z,4
2017-05-24T02:54:08.028Z,8
2017-05-24T02:54:34.143Z,8
2017-05-24T02:55:00.275Z,8
2017-05-24T02:55:26.384Z,8
2017-05-24T02:55:52.495Z,8
2017-05-24T02:56:18.595Z,12
2017-05-24T02:56:44.713Z,8
2017-05-24T02:57:10.878Z,12
2017-05-24T02:57:37.007Z,12
2017-05-24T02:58:03.169Z,12
2017-05-24T02:58:29.274Z,12
2017-05-24T02:58:55.381Z,12
2017-05-24T02:59:21.492Z,16
2017-05-24T02:59:47.595Z,16
2017-05-24T03:00:13.702Z,16
2017-05-24T03:00:39.793Z,16
2017-05-24T03:01:05.890Z,16
2017-05-24T03:01:31.995Z,20
2017-05-24T03:01:58.089Z,20
2017-05-24T03:02:24.219Z,20
2017-05-24T03:02:50.332Z,20
2017-05-24T03:03:16.480Z,20
2017-05-24T03:03:42.611Z,24
2017-05-24T03:04:08.729Z,24
2017-05-24T03:04:34.878Z,28
2017-05-24T03:05:00.983Z,28
2017-05-24T03:05:27.077Z,28
2017-05-24T03:05:53.215Z,32
2017-05-24T03:06:19.376Z,32
2017-05-24T03:06:45.500Z,36
2017-05-24T03:07:11.590Z,40
2017-05-24T03:07:37.696Z,40
2017-05-24T03:08:03.796Z,40
2017-05-24T03:08:29.937Z,48
2017-05-24T03:08:56.093Z,48
2017-05-24T03:09:22.227Z,48
2017-05-24T03:09:48.340Z,56
2017-05-24T03:10:14.467Z,56
2017-05-24T03:10:40.573Z,56
2017-05-24T03:11:06.687Z,60
2017-05-24T03:11:32.785Z,64
2017-05-24T03:11:58.947Z,68
2017-05-24T03:12:25.072Z,72
2017-05-24T03:12:51.186Z,76
2017-05-24T03:13:17.348Z,80
2017-05-24T03:13:43.494Z,84
2017-05-24T03:14:09.601Z,92
2017-05-24T03:14:35.722Z,100
2017-05-24T03:15:01.844Z,108
2017-05-24T03:15:27.948Z,116
2017-05-24T03:15:54.041Z,124
2017-05-24T03:16:20.131Z,136
2017-05-24T03:16:46.270Z,144
2017-05-24T03:17:12.396Z,152
2017-05-24T03:17:38.512Z,164
2017-05-24T03:18:04.702Z,176
2017-05-24T03:18:30.831Z,184
2017-05-24T03:18:56.954Z,192
2017-05-24T03:19:23.047Z,204
2017-05-24T03:19:49.188Z,212
2017-05-24T03:20:15.377Z,220
2017-05-24T03:20:41.474Z,228
2017-05-24T03:21:07.566Z,232
2017-05-24T03:21:33.723Z,236
2017-05-24T03:21:59.822Z,240
2017-05-24T03:22:25.914Z,244
2017-05-24T03:22:52.045Z,248
2017-05-24T03:23:18.206Z,252
2017-05-24T03:23:44.320Z,260
2017-05-24T03:24:10.472Z,272
2017-05-24T03:24:36.616Z,280
2017-05-24T03:25:02.752Z,292
2017-05-24T03:25:28.851Z,304
2017-05-24T03:25:54.965Z,308
2017-05-24T03:26:21.121Z,320
2017-05-24T03:26:47.226Z,332
2017-05-24T03:27:13.313Z,336
2017-05-24T03:27:39.413Z,344
2017-05-24T03:28:05.548Z,356
2017-05-24T03:28:31.639Z,368
2017-05-24T03:28:57.737Z,380
2017-05-24T03:29:23.928Z,388
2017-05-24T03:29:50.019Z,400
2017-05-24T03:30:16.155Z,416
2017-05-24T03:30:42.268Z,432
2017-05-24T03:31:08.392Z,452
2017-05-24T03:31:34.525Z,476
2017-05-24T03:32:00.618Z,504
2017-05-24T03:32:26.713Z,536
2017-05-24T03:32:52.850Z,560
2017-05-24T03:33:18.973Z,588
2017-05-24T03:33:45.066Z,616
2017-05-24T03:34:11.229Z,640
2017-05-24T03:34:37.383Z,660
2017-05-24T03:35:03.476Z,684
2017-05-24T03:35:29.582Z,700
2017-05-24T03:35:55.702Z,724
2017-05-24T03:36:21.809Z,752
2017-05-24T03:36:47.933Z,780
2017-05-24T03:37:14.024Z,816
2017-05-24T03:37:40.133Z,844
2017-05-24T03:38:06.284Z,872
2017-05-24T03:38:32.447Z,904
2017-05-24T03:38:58.609Z,928
2017-05-24T03:39:24.736Z,952
2017-05-24T03:39:50.854Z,964
2017-05-24T03:40:16.981Z,980
2017-05-24T03:40:43.087Z,988
2017-05-24T03:41:09.181Z,1000
2017-05-24T03:41:35.307Z,1016
2017-05-24T03:42:01.423Z,1032
2017-05-24T03:42:27.555Z,1048
2017-05-24T03:42:53.686Z,1060
2017-05-24T03:43:19.849Z,1072
2017-05-24T03:43:45.979Z,1080
2017-05-24T03:44:12.118Z,1096
2017-05-24T03:44:38.255Z,1108
2017-05-24T03:45:04.378Z,1132
2017-05-24T03:45:30.511Z,1156
2017-05-24T03:45:56.602Z,1180
2017-05-24T03:46:22.724Z,1208
2017-05-24T03:46:48.848Z,1236
2017-05-24T03:47:14.973Z,1272
2017-05-24T03:47:41.079Z,1308
2017-05-24T03:48:07.243Z,1340
2017-05-24T03:48:33.367Z,1376
2017-05-24T03:48:59.530Z,1412
2017-05-24T03:49:25.646Z,1452
2017-05-24T03:49:51.744Z,1488
2017-05-24T03:50:17.879Z,1528
2017-05-24T03:50:44.002Z,1560
2017-05-24T03:51:10.094Z,1596
2017-05-24T03:51:36.231Z,1620
2017-05-24T03:52:02.412Z,1648
2017-05-24T03:52:28.502Z,1680
2017-05-24T03:52:54.638Z,1712
2017-05-24T03:53:20.821Z,1752
2017-05-24T03:53:46.962Z,1800
2017-05-24T03:54:13.087Z,1856
2017-05-24T03:54:39.222Z,1916
2017-05-24T03:55:05.336Z,1980
2017-05-24T03:55:31.434Z,2044
2017-05-24T03:55:57.532Z,2100
2017-05-24T03:56:23.623Z,2152
2017-05-24T03:56:49.721Z,2196
2017-05-24T03:57:15.881Z,2252
2017-05-24T03:57:41.977Z,2288
2017-05-24T03:58:08.112Z,2332
2017-05-24T03:58:34.225Z,2376
2017-05-24T03:59:00.325Z,2420
2017-05-24T03:59:26.460Z,2460
2017-05-24T03:59:52.552Z,2500
2017-05-24T04:00:18.675Z,2532
2017-05-24T04:00:44.838Z,2552
2017-05-24T04:01:10.931Z,2548
2017-05-24T04:01:37.046Z,2540
2017-05-24T04:02:03.157Z,2528
2017-05-24T04:02:29.283Z,2500
2017-05-24T04:02:55.396Z,2484
2017-05-24T04:03:21.553Z,2480
2017-05-24T04:03:47.647Z,2476
2017-05-24T04:04:13.808Z,2472
2017-05-24T04:04:39.958Z,2496
2017-05-24T04:05:06.072Z,2528
2017-05-24T04:05:32.181Z,2556
2017-05-24T04:05:58.279Z,2592
2017-05-24T04:06:24.398Z,2608
2017-05-24T04:06:50.504Z,2616
2017-05-24T04:07:16.604Z,2632
2017-05-24T04:07:42.695Z,2656
2017-05-24T04:08:08.823Z,2680
2017-05-24T04:08:34.986Z,2708
2017-05-24T04:09:01.083Z,2744
2017-05-24T04:09:27.207Z,2784
2017-05-24T04:09:53.346Z,2820
2017-05-24T04:10:19.452Z,2844
2017-05-24T04:10:45.551Z,2864
2017-05-24T04:11:11.643Z,2864
2017-05-24T04:11:37.770Z,2856
2017-05-24T04:12:03.933Z,2844
2017-05-24T04:12:30.021Z,2820
2017-05-24T04:12:56.225Z,2796
2017-05-24T04:13:22.324Z,2788
2017-05-24T04:13:48.493Z,2792
2017-05-24T04:14:14.638Z,2792
2017-05-24T04:14:40.735Z,2784
2017-05-24T04:15:06.862Z,2788
2017-05-24T04:15:32.968Z,2776
2017-05-24T04:15:59.108Z,2744
2017-05-24T04:16:25.209Z,2728
2017-05-24T04:16:51.344Z,2716
2017-05-24T04:17:17.434Z,2676
2017-05-24T04:17:43.529Z,2636
2017-05-24T04:18:09.665Z,2600
2017-05-24T04:18:35.811Z,2608
2017-05-24T04:19:01.927Z,2620
2017-05-24T04:19:28.036Z,2644
2017-05-24T04:19:54.165Z,2680
2017-05-24T04:20:20.288Z,2692
2017-05-24T04:20:46.379Z,2680
2017-05-24T04:21:12.476Z,2636
2017-05-24T04:21:38.611Z,2608
2017-05-24T04:22:04.735Z,2588
2017-05-24T04:22:30.825Z,2600
2017-05-24T04:22:56.965Z,2600
2017-05-24T04:23:23.061Z,2612
2017-05-24T04:23:49.176Z,2660
2017-05-24T04:24:15.307Z,2684
2017-05-24T04:24:41.438Z,2716
2017-05-24T04:25:07.579Z,2680
2017-05-24T04:25:33.707Z,2700
2017-05-24T04:25:59.798Z,2768
2017-05-24T04:26:25.909Z,2792
2017-05-24T04:26:52.032Z,2912
2017-05-24T04:27:18.122Z,2992
2017-05-24T04:27:44.229Z,3080
2017-05-24T04:28:10.418Z,3156
2017-05-24T04:28:36.553Z,3184
2017-05-24T04:29:02.657Z,3216
2017-05-24T04:29:28.789Z,3292
2017-05-24T04:29:54.900Z,3344
2017-05-24T04:30:21.025Z,3452
2017-05-24T04:30:47.159Z,3548
2017-05-24T04:31:13.248Z,3628
2017-05-24T04:31:39.379Z,3684
2017-05-24T04:32:05.474Z,3712
2017-05-24T04:32:31.629Z,3692
2017-05-24T04:32:57.736Z,3668
2017-05-24T04:33:23.823Z,3624
2017-05-24T04:33:49.926Z,3600
2017-05-24T04:34:16.115Z,3596
2017-05-24T04:34:42.236Z,3628
2017-05-24T04:35:08.333Z,3768
2017-05-24T04:35:34.440Z,3920
2017-05-24T04:36:00.534Z,4032
2017-05-24T04:36:26.624Z,4144
2017-05-24T04:36:52.735Z,4260
2017-05-24T04:37:18.834Z,4348
2017-05-24T04:37:44.924Z,4388
2017-05-24T04:38:11.085Z,4532
2017-05-24T04:38:37.215Z,4640
2017-05-24T04:39:03.329Z,4628
2017-05-24T04:39:29.478Z,4620
2017-05-24T04:39:55.641Z,4580
2017-05-24T04:40:21.754Z,4640
2017-05-24T04:40:47.854Z,4792
2017-05-24T04:41:13.959Z,4980
2017-05-24T04:41:40.051Z,5088
2017-05-24T04:42:06.173Z,5036
2017-05-24T04:42:32.297Z,4928
2017-05-24T04:42:58.399Z,4740
2017-05-24T04:43:24.508Z,4516
2017-05-24T04:43:50.622Z,4348
2017-05-24T04:44:16.772Z,4228
2017-05-24T04:44:42.933Z,4324
2017-05-24T04:45:09.078Z,4444
2017-05-24T04:45:35.200Z,4400
2017-05-24T04:46:01.333Z,4340
2017-05-24T04:46:27.429Z,4368
2017-05-24T04:46:53.540Z,4508
2017-05-24T04:47:19.678Z,4632
2017-05-24T04:47:45.832Z,4708
2017-05-24T04:48:12.013Z,4728
2017-05-24T04:48:38.159Z,4748
2017-05-24T04:49:04.306Z,4740
2017-05-24T04:49:30.412Z,4780
2017-05-24T04:49:56.505Z,4824
2017-05-24T04:50:22.596Z,4768
2017-05-24T04:50:48.707Z,4628
2017-05-24T04:51:14.805Z,4488
2017-05-24T04:51:40.896Z,4468
2017-05-24T04:52:07.003Z,4512
2017-05-24T04:52:33.159Z,4520
2017-05-24T04:52:59.275Z,4484
2017-05-24T04:53:25.380Z,4488
2017-05-24T04:53:51.470Z,4504
2017-05-24T04:54:17.580Z,4544
2017-05-24T04:54:43.702Z,4516
2017-05-24T04:55:09.841Z,4548
2017-05-24T04:55:35.950Z,4640
2017-05-24T04:56:02.103Z,4688
2017-05-24T04:56:28.196Z,4796
2017-05-24T04:56:54.300Z,4900
2017-05-24T04:57:20.407Z,5056
2017-05-24T04:57:46.566Z,5244
2017-05-24T04:58:12.718Z,5444
2017-05-24T04:58:38.825Z,5676
2017-05-24T04:59:04.944Z,5972
2017-05-24T04:59:31.077Z,6284
2017-05-24T04:59:57.204Z,6628
2017-05-24T05:00:23.325Z,6980
2017-05-24T05:00:49.440Z,7380
2017-05-24T05:01:15.578Z,7880
2017-05-24T05:01:41.676Z,8196
2017-05-24T05:02:07.767Z,8356
2017-05-24T05:02:33.875Z,8424
2017-05-24T05:03:00.006Z,8440
2017-05-24T05:03:26.171Z,8552
2017-05-24T05:03:52.275Z,8508
2017-05-24T05:04:18.437Z,8404
2017-05-24T05:04:44.584Z,8264
2017-05-24T05:05:10.711Z,8136
2017-05-24T05:05:36.828Z,8068
2017-05-24T05:06:02.959Z,7996
2017-05-24T05:06:29.060Z,7864
2017-05-24T05:06:56.827Z,7788
2017-05-24T05:07:23.983Z,7720
2017-05-24T05:07:50.120Z,7740
2017-05-24T05:08:16.263Z,7780
2017-05-24T05:08:42.385Z,7824
2017-05-24T05:09:08.573Z,7868
2017-05-24T05:09:34.822Z,7904
2017-05-24T05:10:02.823Z,8064
2017-05-24T05:10:30.516Z,8136
2017-05-24T05:10:57.583Z,8324
2017-05-24T05:11:24.800Z,8356
2017-05-24T05:11:52.830Z,8364
2017-05-24T05:12:20.765Z,8440
2017-05-24T05:12:47.337Z,8552
2017-05-24T05:13:15.277Z,8576
2017-05-24T05:13:43.206Z,8824
2017-05-24T05:14:10.042Z,9088
2017-05-24T05:14:37.799Z,9416
2017-05-24T05:15:03.940Z,9684
2017-05-24T05:15:30.107Z,9512
2017-05-24T05:15:56.205Z,9712
2017-05-24T05:16:22.307Z,9776
2017-05-24T05:16:48.399Z,9648
2017-05-24T05:17:14.521Z,9564
2017-05-24T05:17:40.683Z,9384
2017-05-24T05:18:06.778Z,8992
2017-05-24T05:18:32.873Z,8592
2017-05-24T05:18:59.037Z,8392
2017-05-24T05:19:25.164Z,8220
2017-05-24T05:19:51.329Z,8120
2017-05-24T05:20:17.465Z,8024
2017-05-24T05:20:43.591Z,7992
2017-05-24T05:21:09.685Z,8036
2017-05-24T05:21:35.814Z,8276
2017-05-24T05:22:01.923Z,8400
2017-05-24T05:22:28.038Z,8364
2017-05-24T05:22:54.136Z,8208
2017-05-24T05:23:20.272Z,8028
2017-05-24T05:23:46.446Z,7824
2017-05-24T05:24:12.570Z,7752
2017-05-24T05:24:38.765Z,7928
2017-05-24T05:25:04.914Z,8392
2017-05-24T05:25:31.030Z,9060
2017-05-24T05:25:57.143Z,9864
2017-05-24T05:26:23.240Z,10644
2017-05-24T05:26:49.332Z,11440
2017-05-24T05:27:15.438Z,12392
2017-05-24T05:27:41.558Z,13460
2017-05-24T05:28:07.720Z,14332
2017-05-24T05:28:33.841Z,15196
2017-05-24T05:28:59.932Z,15396
2017-05-24T05:29:26.098Z,15596
2017-05-24T05:29:52.250Z,15936
2017-05-24T05:30:18.367Z,16308
2017-05-24T05:30:44.475Z,16736
2017-05-24T05:31:10.577Z,16960
2017-05-24T05:31:36.668Z,17024
2017-05-24T05:32:02.826Z,16928
2017-05-24T05:32:28.934Z,16672
2017-05-24T05:32:55.055Z,16300
2017-05-24T05:33:21.210Z,16352
2017-05-24T05:33:47.300Z,16300
2017-05-24T05:34:13.459Z,16380
2017-05-24T05:34:39.588Z,16540
2017-05-24T05:35:05.679Z,16368
2017-05-24T05:35:31.807Z,15524
2017-05-24T05:35:57.968Z,14352
2017-05-24T05:36:24.051Z,13548
2017-05-24T05:36:50.202Z,12940
2017-05-24T05:37:16.308Z,12588
2017-05-24T05:37:42.401Z,12464
2017-05-24T05:38:08.546Z,12496
2017-05-24T05:38:34.702Z,12812
2017-05-24T05:39:00.808Z,13444
2017-05-24T05:39:26.945Z,13948
2017-05-24T05:39:53.082Z,14000
2017-05-24T05:40:19.230Z,14396
2017-05-24T05:40:45.337Z,14768
2017-05-24T05:41:11.430Z,15384
2017-05-24T05:41:37.604Z,16184
2017-05-24T05:42:03.770Z,16992
2017-05-24T05:42:29.858Z,17280
2017-05-24T05:42:55.999Z,17568
2017-05-24T05:43:22.110Z,17600
2017-05-24T05:43:48.234Z,17440
2017-05-24T05:44:14.361Z,17056
2017-05-24T05:44:40.477Z,16404
2017-05-24T05:45:06.599Z,15528
2017-05-24T05:45:32.707Z,15312
2017-05-24T05:45:58.831Z,15556
2017-05-24T05:46:24.920Z,15836
2017-05-24T05:46:51.031Z,16532
2017-05-24T05:47:17.158Z,17408
2017-05-24T05:47:43.271Z,18304
2017-05-24T05:48:09.410Z,18880
2017-05-24T05:48:35.540Z,19776
2017-05-24T05:49:01.684Z,20032
2017-05-24T05:49:27.820Z,20160
2017-05-24T05:49:53.914Z,20352
2017-05-24T05:50:20.076Z,20640
2017-05-24T05:50:46.200Z,20704
2017-05-24T05:51:12.292Z,20800
2017-05-24T05:51:38.427Z,21056
2017-05-24T05:52:04.697Z,21184
2017-05-24T05:52:30.830Z,21504
2017-05-24T05:52:56.916Z,21312
2017-05-24T05:53:23.055Z,20512
2017-05-24T05:53:49.172Z,19712
2017-05-24T05:54:15.398Z,19424
2017-05-24T05:54:41.502Z,19200
2017-05-24T05:55:07.640Z,19200
2017-05-24T05:55:33.772Z,19488
2017-05-24T05:55:59.890Z,20000
2017-05-24T05:56:26.004Z,20384
2017-05-24T05:56:52.124Z,20512
2017-05-24T05:57:18.214Z,20896
2017-05-24T05:57:44.319Z,21344
2017-05-24T05:58:10.501Z,21696
2017-05-24T05:58:37.107Z,22176
2017-05-24T05:59:03.507Z,22752
2017-05-24T05:59:29.736Z,22976
2017-05-24T05:59:56.008Z,22976
2017-05-24T06:00:22.124Z,23040
2017-05-24T06:00:48.287Z,23264
2017-05-24T06:01:14.390Z,23360
2017-05-24T06:01:40.523Z,22944
2017-05-24T06:02:06.613Z,22624
2017-05-24T06:02:32.736Z,22112
2017-05-24T06:02:58.901Z,21088
2017-05-24T06:03:25.055Z,19712
2017-05-24T06:03:51.174Z,18336
2017-05-24T06:04:17.289Z,17316
2017-05-24T06:04:43.440Z,16716
2017-05-24T06:05:09.534Z,16488
2017-05-24T06:05:35.642Z,16380
2017-05-24T06:06:01.772Z,16188
2017-05-24T06:06:27.867Z,16552